Time;durP1;ratioP1;P1;durP2;ratioP2;P2;SDS_P1;SDS_P2;PMS_P1;PMS_P2;Temp;Humidity;BMP_temperature;BMP_pressure;BME280_temperature;BME280_humidity;BME280_pressure;Samples;Min_cycle;Max_cycle;Signal;HPM_P1;HPM_P2
2021/04/12 00:01:48;;;;;;;10.98;7.63;;;4.10;99.90;;;;;;3562565;40;20813;-63
2021/04/12 00:04:52;;;;;;;11.27;8.05;;;4.10;99.90;;;;;;3563040;40;20148;-63
2021/04/12 00:07:33;;;;;;;13.20;8.43;;;4.10;99.90;;;;;;3550889;40;20052;-62
2021/04/12 00:10:18;;;;;;;17.55;9.18;;;4.10;99.90;;;;;;3561982;40;20311;-62
2021/04/12 00:12:54;;;;;;;15.80;8.60;;;4.20;99.90;;;;;;3561882;40;20709;-63
2021/04/12 00:15:24;;;;;;;17.23;9.88;;;4.20;99.90;;;;;;3560361;40;20099;-62
2021/04/12 00:17:53;;;;;;;15.32;10.18;;;4.10;99.90;;;;;;3562557;40;20038;-62
2021/04/12 00:20:35;;;;;;;16.92;10.52;;;4.20;99.90;;;;;;3562473;40;20049;-62
2021/04/12 00:23:09;;;;;;;19.20;10.13;;;4.20;99.90;;;;;;3561268;40;20937;-62
2021/04/12 00:25:43;;;;;;;17.13;10.32;;;4.10;99.90;;;;;;3562005;40;20033;-62
2021/04/12 00:28:30;;;;;;;18.88;10.45;;;4.10;99.90;;;;;;3562238;40;20204;-62
2021/04/12 00:31:02;;;;;;;21.65;11.77;;;4.10;99.90;;;;;;3562195;40;20029;-63
2021/04/12 00:33:44;;;;;;;18.58;9.95;;;4.00;99.90;;;;;;3562185;40;20719;-63
2021/04/12 00:36:41;;;;;;;18.17;11.00;;;4.00;99.90;;;;;;3562974;40;20869;-63
2021/04/12 00:39:25;;;;;;;17.88;10.55;;;3.90;99.90;;;;;;3563066;40;20418;-63
2021/04/12 00:42:29;;;;;;;20.10;10.52;;;3.90;99.90;;;;;;3561666;40;20077;-63
2021/04/12 00:44:59;;;;;;;20.73;10.20;;;3.80;99.90;;;;;;3535520;40;20046;-63
2021/04/12 00:47:44;;;;;;;23.45;9.98;;;3.80;99.90;;;;;;3558009;40;20059;-63
2021/04/12 00:50:47;;;;;;;21.65;11.00;;;3.70;99.90;;;;;;3560447;40;20108;-63
2021/04/12 00:53:46;;;;;;;18.25;10.73;;;3.80;99.90;;;;;;3561822;40;20037;-63
2021/04/12 00:56:22;;;;;;;20.65;10.50;;;3.90;99.90;;;;;;3562246;40;20034;-66
2021/04/12 00:58:58;;;;;;;19.67;10.25;;;3.90;99.90;;;;;;3562373;40;20144;-66
2021/04/12 01:01:38;;;;;;;19.80;10.50;;;3.90;99.90;;;;;;3562002;40;20037;-66
2021/04/12 01:04:07;;;;;;;25.65;10.45;;;3.90;99.90;;;;;;3561426;40;20134;-66
2021/04/12 01:06:59;;;;;;;20.42;10.77;;;3.90;99.90;;;;;;3561026;40;20122;-66
2021/04/12 01:09:46;;;;;;;16.63;10.00;;;3.90;99.90;;;;;;3561231;40;20045;-66
2021/04/12 01:12:31;;;;;;;20.25;10.55;;;3.90;99.90;;;;;;3561842;40;20131;-65
2021/04/12 01:15:15;;;;;;;21.73;10.23;;;3.90;99.90;;;;;;3561200;40;20033;-65
2021/04/12 01:17:49;;;;;;;15.27;9.10;;;3.90;99.90;;;;;;3562880;40;20035;-65
2021/04/12 01:20:33;;;;;;;13.80;7.57;;;3.90;99.90;;;;;;3561213;40;20102;-66
2021/04/12 01:23:22;;;;;;;15.43;9.73;;;3.80;99.90;;;;;;3563337;40;20672;-66
2021/04/12 01:26:12;;;;;;;16.63;10.23;;;3.80;99.90;;;;;;3562684;40;20029;-65
2021/04/12 01:28:46;;;;;;;13.38;8.65;;;3.80;99.90;;;;;;3562497;40;20116;-66
2021/04/12 01:31:39;;;;;;;14.25;8.32;;;3.80;99.90;;;;;;3561473;40;20094;-66
2021/04/12 01:34:11;;;;;;;14.32;8.18;;;3.80;99.90;;;;;;3562411;40;20801;-65
2021/04/12 01:36:55;;;;;;;16.83;8.32;;;3.80;99.90;;;;;;3562063;40;20333;-66
2021/04/12 01:39:55;;;;;;;13.35;8.18;;;3.70;99.90;;;;;;3564075;40;20048;-66
2021/04/12 01:42:39;;;;;;;19.40;9.32;;;3.60;99.90;;;;;;3562792;40;20088;-66
2021/04/12 01:45:20;;;;;;;15.90;8.93;;;3.60;99.90;;;;;;3562586;40;20060;-66
2021/04/12 01:48:07;;;;;;;15.65;9.52;;;3.60;99.90;;;;;;3561693;40;20055;-66
2021/04/12 01:50:55;;;;;;;17.85;9.50;;;3.70;99.90;;;;;;3560729;40;20046;-66
2021/04/12 01:53:30;;;;;;;19.05;10.18;;;3.70;99.90;;;;;;3562167;40;20048;-66
2021/04/12 01:56:06;;;;;;;;;;;3.70;99.90;;;;;;3562034;40;20172;-66
2021/04/12 01:58:41;;;;;;;17.98;9.25;;;3.80;99.90;;;;;;3562458;40;19929;-66
2021/04/12 02:01:33;;;;;;;17.33;9.30;;;3.80;99.90;;;;;;3560629;40;20037;-66
2021/04/12 02:04:12;;;;;;;23.00;10.18;;;3.80;99.90;;;;;;3560589;40;20146;-66
2021/04/12 02:06:43;;;;;;;18.90;10.07;;;3.80;99.90;;;;;;3561294;40;20041;-66
2021/04/12 02:09:35;;;;;;;20.90;10.30;;;3.80;99.90;;;;;;3560398;40;20150;-66
2021/04/12 02:12:34;;;;;;;20.92;10.07;;;3.90;99.90;;;;;;3561321;40;20068;-66
2021/04/12 02:15:37;;;;;;;17.77;9.73;;;3.90;99.90;;;;;;3572156;40;20045;-66
2021/04/12 02:18:35;;;;;;;20.52;11.15;;;4.00;99.90;;;;;;3566152;40;20298;-66
2021/04/12 02:21:45;;;;;;;18.33;10.02;;;4.00;99.90;;;;;;3562570;40;20041;-67
2021/04/12 02:24:37;;;;;;;25.77;10.57;;;4.10;99.90;;;;;;3563119;40;20042;-67
2021/04/12 02:27:26;;;;;;;19.13;9.60;;;4.10;99.90;;;;;;3562499;40;20041;-67
2021/04/12 02:30:17;;;;;;;16.42;9.38;;;4.10;99.90;;;;;;3562734;40;20096;-67
2021/04/12 02:33:01;;;;;;;23.67;10.70;;;4.10;99.90;;;;;;3561829;40;20303;-66
2021/04/12 02:35:50;;;;;;;31.38;14.60;;;4.10;99.90;;;;;;3565141;40;20045;-67
2021/04/12 02:39:01;;;;;;;27.13;11.13;;;4.10;99.90;;;;;;3564909;40;20033;-67
2021/04/12 02:41:44;;;;;;;17.58;9.48;;;4.10;99.90;;;;;;3556312;40;20048;-66
2021/04/12 02:44:24;;;;;;;19.45;10.48;;;4.20;99.90;;;;;;3562158;40;20046;-67
2021/04/12 02:47:11;;;;;;;18.15;9.23;;;4.30;99.90;;;;;;3561426;40;20406;-67
2021/04/12 02:49:57;;;;;;;18.40;9.70;;;4.50;99.90;;;;;;3561285;40;20046;-67
2021/04/12 02:52:44;;;;;;;20.52;9.68;;;4.20;99.90;;;;;;3562299;40;20041;-67
2021/04/12 02:55:18;;;;;;;20.20;9.95;;;4.20;99.90;;;;;;3561630;40;20136;-67
2021/04/12 02:57:59;;;;;;;22.55;9.98;;;4.20;99.90;;;;;;3563619;40;20041;-67
2021/04/12 03:00:27;;;;;;;18.33;9.63;;;4.20;99.90;;;;;;3563386;40;20044;-67
2021/04/12 03:03:19;;;;;;;16.75;9.20;;;4.30;99.90;;;;;;3561351;40;20088;-67
2021/04/12 03:06:06;;;;;;;23.25;12.32;;;4.30;99.90;;;;;;3562854;40;20039;-67
2021/04/12 03:09:10;;;;;;;23.00;11.13;;;4.30;99.90;;;;;;3565089;40;20044;-67
2021/04/12 03:12:24;;;;;;;28.10;11.02;;;4.30;99.90;;;;;;3563119;40;20049;-67
2021/04/12 03:14:53;;;;;;;21.10;8.98;;;4.20;99.90;;;;;;3559396;40;20202;-67
2021/04/12 03:17:38;;;;;;;16.20;8.60;;;4.10;99.90;;;;;;3563245;40;20731;-67
2021/04/12 03:20:28;;;;;;;19.63;8.77;;;4.20;99.90;;;;;;3562602;40;20057;-67
2021/04/12 03:23:21;;;;;;;18.20;8.32;;;4.70;99.90;;;;;;3562901;40;20038;-67
2021/04/12 03:26:41;;;;;;;19.95;8.60;;;4.10;99.90;;;;;;3561248;40;20049;-67
2021/04/12 03:29:25;;;;;;;16.80;9.10;;;4.20;99.90;;;;;;3552223;40;20049;-67
2021/04/12 03:32:07;;;;;;;18.85;8.55;;;4.10;99.90;;;;;;3564433;40;20041;-68
2021/04/12 03:34:51;;;;;;;17.25;9.30;;;4.10;99.90;;;;;;3565466;40;20049;-67
2021/04/12 03:37:26;;;;;;;16.42;9.10;;;4.10;99.90;;;;;;3562964;40;20418;-66
2021/04/12 03:40:27;;;;;;;25.20;10.88;;;4.20;99.90;;;;;;3563920;40;20132;-66
2021/04/12 03:43:20;;;;;;;20.33;10.05;;;4.20;99.90;;;;;;3565036;40;20034;-67
2021/04/12 03:45:57;;;;;;;15.75;9.05;;;4.20;99.90;;;;;;3563227;40;20619;-67
2021/04/12 03:48:38;;;;;;;21.13;8.68;;;4.30;99.90;;;;;;3563817;40;20168;-67
2021/04/12 03:51:07;;;;;;;17.80;8.77;;;4.20;99.90;;;;;;3563359;40;20045;-67
2021/04/12 03:53:44;;;;;;;24.13;8.98;;;4.20;99.90;;;;;;3563120;40;20034;-68
2021/04/12 03:56:29;;;;;;;15.95;8.77;;;4.20;99.90;;;;;;3561112;40;20370;-67
2021/04/12 03:59:24;;;;;;;15.65;7.97;;;4.20;99.90;;;;;;3562173;40;20045;-66
2021/04/12 04:02:12;;;;;;;18.95;7.95;;;4.20;99.90;;;;;;3565358;40;20083;-67
2021/04/12 04:04:54;;;;;;;15.80;7.45;;;4.20;99.90;;;;;;3565669;40;20155;-66
2021/04/12 04:08:06;;;;;;;17.25;8.25;;;4.20;99.90;;;;;;3562916;40;20052;-67
2021/04/12 04:10:41;;;;;;;14.85;7.07;;;4.20;99.90;;;;;;3560047;40;20040;-67
2021/04/12 04:13:40;;;;;;;14.82;7.15;;;4.20;99.90;;;;;;3563637;40;20045;-68
2021/04/12 04:16:37;;;;;;;13.70;7.88;;;4.10;99.90;;;;;;3573482;40;20391;-67
2021/04/12 04:19:14;;;;;;;18.05;8.10;;;4.10;99.90;;;;;;3565954;40;20041;-67
2021/04/12 04:22:01;;;;;;;15.50;7.43;;;4.00;99.90;;;;;;3560982;40;20131;-65
2021/04/12 04:24:56;;;;;;;19.33;7.28;;;4.00;99.90;;;;;;3564410;40;20040;-67
2021/04/12 04:28:02;;;;;;;14.10;6.53;;;4.10;99.90;;;;;;3562433;40;20569;-67
2021/04/12 04:30:52;;;;;;;12.25;6.35;;;4.00;99.90;;;;;;3562589;40;20708;-67
2021/04/12 04:33:52;;;;;;;12.52;6.18;;;4.00;99.90;;;;;;3562722;40;20043;-66
2021/04/12 04:36:36;;;;;;;19.02;9.50;;;3.90;99.90;;;;;;3563906;40;20053;-66
2021/04/12 04:39:39;;;;;;;12.50;5.72;;;3.90;99.90;;;;;;3562729;40;20046;-67
2021/04/12 04:42:31;;;;;;;11.98;6.00;;;3.90;99.90;;;;;;3563603;40;20426;-68
2021/04/12 04:45:35;;;;;;;10.45;5.88;;;3.90;99.90;;;;;;3562422;40;20064;-67
2021/04/12 04:48:12;;;;;;;10.68;6.15;;;3.90;99.90;;;;;;3550423;40;20049;-68
2021/04/12 04:51:09;;;;;;;15.73;6.30;;;3.90;99.90;;;;;;3572676;40;20049;-66
2021/04/12 04:54:12;;;;;;;9.93;5.82;;;3.80;99.90;;;;;;3561635;40;20102;-66
2021/04/12 04:57:17;;;;;;;12.43;6.28;;;3.90;99.90;;;;;;3562473;40;20086;-67
2021/04/12 05:00:19;;;;;;;11.55;6.60;;;4.00;99.90;;;;;;3534916;40;20375;-67
2021/04/12 05:03:06;;;;;;;10.77;6.85;;;4.00;99.90;;;;;;3563937;40;20053;-66
2021/04/12 05:06:09;;;;;;;37.13;17.70;;;4.00;99.90;;;;;;3562519;40;20045;-66
2021/04/12 05:09:13;;;;;;;17.10;8.68;;;4.00;99.90;;;;;;3562115;40;20044;-66
2021/04/12 05:12:16;;;;;;;11.32;6.15;;;4.10;99.90;;;;;;3564102;40;20135;-66
2021/04/12 05:15:01;;;;;;;12.68;5.80;;;4.10;99.90;;;;;;3564057;40;20092;-66
2021/04/12 05:18:03;;;;;;;14.65;6.35;;;4.10;99.90;;;;;;3563582;40;20041;-66
2021/04/12 05:20:55;;;;;;;13.85;6.40;;;4.10;99.90;;;;;;3562493;40;20052;-66
2021/04/12 05:23:41;;;;;;;13.13;6.03;;;4.10;99.90;;;;;;3557608;40;20092;-66
2021/04/12 05:26:16;;;;;;;8.35;5.40;;;4.20;99.90;;;;;;3562094;40;20042;-66
2021/04/12 05:29:00;;;;;;;13.10;5.32;;;4.30;99.90;;;;;;3561862;40;20041;-66
2021/04/12 05:32:01;;;;;;;8.80;5.28;;;4.30;99.90;;;;;;3563101;40;20045;-65
2021/04/12 05:34:38;;;;;;;14.25;5.32;;;4.40;99.90;;;;;;3561734;40;20041;-66
2021/04/12 05:37:16;;;;;;;7.38;4.93;;;4.30;99.90;;;;;;3561201;40;20149;-66
2021/04/12 05:40:05;;;;;;;11.40;5.20;;;4.40;99.90;;;;;;3560644;40;20502;-65
2021/04/12 05:43:03;;;;;;;13.25;5.53;;;4.50;99.90;;;;;;3561890;40;20046;-66
2021/04/12 05:46:09;;;;;;;15.65;6.78;;;4.50;99.90;;;;;;3560618;40;20825;-66
2021/04/12 05:48:41;;;;;;;13.18;6.15;;;4.50;99.90;;;;;;3558251;40;20055;-66
2021/04/12 05:51:35;;;;;;;14.77;5.32;;;4.50;99.90;;;;;;3565047;40;20053;-66
2021/04/12 05:54:22;;;;;;;12.60;6.43;;;4.50;99.90;;;;;;3564339;40;20042;-66
2021/04/12 05:57:26;;;;;;;11.40;5.47;;;4.60;99.90;;;;;;3562149;40;20143;-65
2021/04/12 06:00:00;;;;;;;13.32;5.30;;;4.60;99.90;;;;;;3559635;40;20040;-66
2021/04/12 06:03:05;;;;;;;14.88;5.45;;;4.60;99.90;;;;;;3562053;40;20045;-65
2021/04/12 06:05:49;;;;;;;13.18;5.82;;;4.70;99.90;;;;;;3559434;40;20061;-66
2021/04/12 06:08:47;;;;;;;9.60;5.38;;;4.70;99.90;;;;;;3563621;40;20059;-66
2021/04/12 06:11:22;;;;;;;14.57;5.47;;;4.70;99.90;;;;;;3561300;40;20085;-65
2021/04/12 06:13:51;;;;;;;9.57;4.55;;;4.80;99.90;;;;;;3559705;40;20044;-65
2021/04/12 06:16:34;;;;;;;14.63;5.00;;;4.80;99.90;;;;;;3558818;40;20038;-65
2021/04/12 06:19:19;;;;;;;10.38;4.60;;;4.80;99.90;;;;;;3562594;40;20048;-65
2021/04/12 06:21:47;;;;;;;8.02;4.18;;;4.70;99.90;;;;;;3564174;40;20696;-65
2021/04/12 06:24:21;;;;;;;10.38;4.45;;;4.80;99.90;;;;;;3561245;40;20056;-65
2021/04/12 06:27:11;;;;;;;9.52;3.50;;;5.00;99.90;;;;;;3563550;40;20138;-67
2021/04/12 06:30:01;;;;;;;11.00;4.22;;;5.00;99.90;;;;;;3561115;40;20037;-65
2021/04/12 06:32:58;;;;;;;11.18;4.15;;;5.00;99.90;;;;;;3558908;40;20049;-65
2021/04/12 06:35:45;;;;;;;8.25;3.35;;;4.90;99.90;;;;;;3573194;40;20045;-65
2021/04/12 06:38:40;;;;;;;6.38;3.60;;;5.00;99.90;;;;;;3560325;40;20188;-65
2021/04/12 06:41:29;;;;;;;10.38;4.10;;;5.10;99.90;;;;;;3560699;40;20049;-65
2021/04/12 06:44:07;;;;;;;10.30;3.10;;;5.20;99.90;;;;;;3561011;40;20052;-65
2021/04/12 06:47:03;;;;;;;6.97;3.50;;;5.40;99.90;;;;;;3563703;40;20045;-65
2021/04/12 06:49:46;;;;;;;6.70;3.10;;;5.30;99.90;;;;;;3562390;40;20038;-66
2021/04/12 06:53:02;;;;;;;5.93;3.60;;;5.30;99.90;;;;;;3564221;40;20740;-65
2021/04/12 06:56:03;;;;;;;7.43;3.60;;;5.10;99.90;;;;;;3549633;40;20053;-65
2021/04/12 06:58:53;;;;;;;9.30;3.50;;;5.50;99.90;;;;;;3564470;40;20196;-65
2021/04/12 07:01:43;;;;;;;11.38;3.72;;;5.30;99.90;;;;;;3563982;40;20057;-65
2021/04/12 07:04:45;;;;;;;9.50;4.07;;;5.20;99.90;;;;;;3564162;40;20040;-66
2021/04/12 07:07:29;;;;;;;9.68;3.80;;;5.20;99.90;;;;;;3563137;40;20607;-65
2021/04/12 07:10:19;;;;;;;7.90;4.00;;;5.30;99.90;;;;;;3564287;40;20079;-66
2021/04/12 07:13:26;;;;;;;8.75;4.88;;;5.40;99.90;;;;;;3565776;40;20429;-66
2021/04/12 07:16:33;;;;;;;10.13;4.07;;;5.40;99.90;;;;;;3563450;40;20041;-65
2021/04/12 07:19:27;;;;;;;11.13;3.70;;;5.40;99.90;;;;;;3565631;40;20048;-65
2021/04/12 07:22:13;;;;;;;13.95;4.53;;;5.40;99.90;;;;;;3564969;40;20033;-65
2021/04/12 07:25:03;;;;;;;8.48;3.38;;;5.40;99.90;;;;;;3564641;40;20382;-65
2021/04/12 07:28:19;;;;;;;10.45;3.67;;;5.50;99.90;;;;;;3564742;40;20139;-65
2021/04/12 07:31:16;;;;;;;8.30;3.15;;;5.80;99.90;;;;;;3556107;40;20038;-66
2021/04/12 07:34:03;;;;;;;10.55;2.92;;;5.60;99.90;;;;;;3564624;40;20041;-65
2021/04/12 07:36:55;;;;;;;6.63;2.75;;;6.00;99.90;;;;;;3564315;40;20045;-65
2021/04/12 07:39:55;;;;;;;11.93;3.50;;;5.80;99.90;;;;;;3565620;40;20180;-65
2021/04/12 07:42:39;;;;;;;8.05;3.15;;;5.90;99.90;;;;;;3565326;40;20407;-65
2021/04/12 07:45:05;;;;;;;7.75;3.13;;;6.00;99.90;;;;;;3566934;40;20041;-65
2021/04/12 07:48:05;;;;;;;12.02;2.85;;;6.10;99.90;;;;;;3564150;40;20045;-65
2021/04/12 07:50:50;;;;;;;7.10;2.78;;;6.20;99.90;;;;;;3562523;40;20034;-65
2021/04/12 07:53:16;;;;;;;6.38;2.75;;;;;;;;;;3562961;40;20131;-65
2021/04/12 07:56:18;;;;;;;12.95;2.45;;;6.30;99.90;;;;;;3561811;40;20049;-65
2021/04/12 07:59:25;;;;;;;8.90;2.55;;;6.30;99.90;;;;;;3563110;40;20041;-65
2021/04/12 08:02:28;;;;;;;7.05;2.35;;;6.30;99.90;;;;;;3540033;40;20042;-65
2021/04/12 08:05:29;;;;;;;12.73;2.50;;;6.40;99.90;;;;;;3563696;40;20114;-65
2021/04/12 08:08:13;;;;;;;6.05;2.17;;;6.30;99.90;;;;;;3541433;40;20069;-65
2021/04/12 08:11:32;;;;;;;7.03;2.25;;;6.50;99.90;;;;;;3569108;40;20049;-65
2021/04/12 08:14:19;;;;;;;9.20;3.78;;;6.70;99.90;;;;;;3565481;40;20049;-65
2021/04/12 08:17:05;;;;;;;8.40;1.90;;;6.90;99.90;;;;;;3563065;40;20502;-65
2021/04/12 08:19:46;;;;;;;4.32;2.08;;;6.70;99.90;;;;;;3559118;40;20049;-65
2021/04/12 08:23:00;;;;;;;3.05;1.77;;;6.80;99.90;;;;;;3574930;40;20080;-65
2021/04/12 08:26:03;;;;;;;7.25;3.00;;;6.80;99.90;;;;;;3562092;40;20038;-62
2021/04/12 08:29:06;;;;;;;8.77;2.00;;;6.70;99.90;;;;;;3564981;40;20097;-63
2021/04/12 08:32:05;;;;;;;11.27;3.05;;;6.80;99.90;;;;;;3562951;40;20423;-63
2021/04/12 08:35:00;;;;;;;7.85;2.33;;;6.60;99.90;;;;;;3561706;40;20029;-62
2021/04/12 08:38:03;;;;;;;8.85;1.67;;;7.00;99.90;;;;;;3561893;40;20049;-62
2021/04/12 08:40:54;;;;;;;6.28;1.60;;;7.20;99.90;;;;;;3563572;40;20045;-62
2021/04/12 08:43:57;;;;;;;11.93;2.20;;;7.30;99.90;;;;;;3560994;40;20057;-61
2021/04/12 08:46:50;;;;;;;5.50;1.55;;;7.50;99.90;;;;;;3563577;40;20143;-62
2021/04/12 08:49:54;;;;;;;15.88;5.07;;;7.50;99.90;;;;;;3563676;40;20070;-62
2021/04/12 08:52:38;;;;;;;9.93;2.78;;;7.90;99.90;;;;;;3561479;40;20060;-62
2021/04/12 08:55:37;;;;;;;8.45;1.90;;;8.00;99.90;;;;;;3565039;40;20084;-62
2021/04/12 08:58:27;;;;;;;10.95;1.65;;;8.10;99.90;;;;;;3563279;40;20049;-62
2021/04/12 09:01:25;;;;;;;6.93;1.60;;;7.90;99.90;;;;;;3565475;40;20088;-62
2021/04/12 09:04:32;;;;;;;13.07;1.85;;;7.90;99.90;;;;;;3555258;40;20081;-62
2021/04/12 09:07:36;;;;;;;4.25;1.45;;;7.80;99.90;;;;;;3564585;40;20055;-62
2021/04/12 09:10:35;;;;;;;4.57;1.55;;;7.60;99.90;;;;;;3562646;40;20056;-62
2021/04/12 09:13:30;;;;;;;8.95;1.30;;;7.50;99.90;;;;;;3561261;40;20041;-62
2021/04/12 09:16:11;;;;;;;10.93;1.63;;;7.80;99.90;;;;;;3563633;40;20044;-62
2021/04/12 09:19:03;;;;;;;8.13;1.80;;;8.20;99.90;;;;;;3562488;40;20048;-62
2021/04/12 09:22:06;;;;;;;5.35;1.23;;;8.10;99.90;;;;;;3561433;40;20039;-62
2021/04/12 09:25:11;;;;;;;3.92;1.20;;;8.00;99.90;;;;;;3561946;40;20041;-62
2021/04/12 09:28:05;;;;;;;5.63;1.48;;;8.00;99.90;;;;;;3551989;40;20154;-62
2021/04/12 09:30:50;;;;;;;6.45;1.40;;;8.10;99.90;;;;;;3563625;40;20045;-60
2021/04/12 09:33:16;;;;;;;8.43;1.45;;;8.10;99.90;;;;;;3565052;40;20051;-62
2021/04/12 09:35:41;;;;;;;2.90;1.02;;;8.20;99.90;;;;;;3565317;40;20049;-62
2021/04/12 09:38:07;;;;;;;5.32;1.63;;;;;;;;;;3561853;40;20042;-62
2021/04/12 09:40:45;;;;;;;7.95;1.40;;;8.10;99.90;;;;;;3560163;40;20160;-62
2021/04/12 09:43:23;;;;;;;5.13;1.25;;;8.30;99.90;;;;;;3568881;40;20088;-62
2021/04/12 09:46:26;;;;;;;5.25;1.50;;;8.40;99.90;;;;;;3563192;40;20044;-62
2021/04/12 09:49:04;;;;;;;6.85;1.55;;;8.30;99.90;;;;;;3563840;40;20057;-63
2021/04/12 09:51:30;;;;;;;6.75;1.30;;;;;;;;;;3561916;40;20064;-63
2021/04/12 09:54:10;;;;;;;6.20;1.33;;;8.30;99.90;;;;;;3564081;40;20131;-64
2021/04/12 09:56:51;;;;;;;4.53;1.55;;;8.30;99.90;;;;;;3559941;40;20038;-63
2021/04/12 09:59:55;;;;;;;7.75;1.35;;;8.40;99.90;;;;;;3561702;40;20712;-64
2021/04/12 10:02:33;;;;;;;10.27;1.10;;;8.40;99.90;;;;;;3561064;40;20069;-62
2021/04/12 10:05:01;;;;;;;4.65;0.93;;;8.30;99.90;;;;;;3560819;40;20399;-64
2021/04/12 10:07:38;;;;;;;5.50;1.35;;;8.40;99.90;;;;;;3560764;40;20041;-63
2021/04/12 10:10:23;;;;;;;6.38;1.38;;;8.60;99.90;;;;;;3560407;40;20794;-67
2021/04/12 10:13:11;;;;;;;5.20;1.40;;;8.50;99.60;;;;;;3559919;40;20437;-67
2021/04/12 10:16:03;;;;;;;7.13;1.77;;;8.50;99.90;;;;;;3560782;40;20141;-62
2021/04/12 10:18:38;;;;;;;4.00;0.98;;;8.60;99.90;;;;;;3559604;40;20071;-67
2021/04/12 10:21:10;;;;;;;5.93;1.23;;;8.70;99.90;;;;;;3561577;40;20026;-69
2021/04/12 10:23:38;;;;;;;3.70;1.17;;;8.60;99.90;;;;;;3561836;40;20762;-67
2021/04/12 10:26:25;;;;;;;2.50;0.80;;;8.50;99.90;;;;;;3561904;40;20414;-63
2021/04/12 10:29:06;;;;;;;8.73;1.23;;;8.40;99.80;;;;;;3559660;40;20532;-63
2021/04/12 10:31:35;;;;;;;5.65;2.40;;;8.50;99.70;;;;;;3563296;40;20050;-63
2021/04/12 10:34:09;;;;;;;3.67;0.80;;;8.40;99.20;;;;;;3564597;40;20784;-64
2021/04/12 10:36:54;;;;;;;7.40;1.23;;;8.50;99.60;;;;;;3566383;40;20126;-64
2021/04/12 10:39:35;;;;;;;5.90;1.50;;;8.70;99.90;;;;;;3562509;40;20048;-64
2021/04/12 10:42:22;;;;;;;11.27;1.23;;;9.00;99.20;;;;;;3563109;40;20795;-64
2021/04/12 10:45:13;;;;;;;4.10;1.27;;;8.90;99.10;;;;;;3560772;40;20053;-64
2021/04/12 10:47:52;;;;;;;10.38;2.35;;;8.60;99.00;;;;;;3570468;40;20071;-64
2021/04/12 10:50:45;;;;;;;5.35;1.30;;;8.40;99.50;;;;;;3563527;40;20033;-67
2021/04/12 10:53:46;;;;;;;2.35;1.33;;;8.50;99.90;;;;;;3560596;40;20143;-67
2021/04/12 10:56:19;;;;;;;5.63;1.05;;;8.60;98.80;;;;;;3567040;40;20061;-64
2021/04/12 10:59:42;;;;;;;3.80;1.20;;;8.60;98.50;;;;;;3563995;40;20037;-65
2021/04/12 11:02:27;;;;;;;7.40;1.30;;;8.80;99.40;;;;;;3553720;40;20033;-64
2021/04/12 11:04:59;;;;;;;4.28;1.02;;;9.00;98.80;;;;;;3563100;40;20064;-63
2021/04/12 11:07:36;;;;;;;7.25;1.45;;;9.00;98.30;;;;;;3569942;40;20053;-63
2021/04/12 11:10:34;;;;;;;9.50;2.30;;;9.00;98.40;;;;;;3562676;40;20492;-64
2021/04/12 11:13:06;;;;;;;7.45;1.33;;;9.20;98.40;;;;;;3565045;40;20156;-64
2021/04/12 11:15:54;;;;;;;8.48;1.48;;;9.40;96.30;;;;;;3567233;40;20544;-64
2021/04/12 11:18:30;;;;;;;9.65;2.10;;;9.20;97.80;;;;;;3564839;40;20045;-64
2021/04/12 11:21:10;;;;;;;6.07;1.50;;;9.40;97.70;;;;;;3570390;40;20041;-64
2021/04/12 11:23:52;;;;;;;11.55;1.20;;;9.50;97.40;;;;;;3565173;40;20033;-64
2021/04/12 11:26:49;;;;;;;8.32;1.10;;;9.60;96.30;;;;;;3561544;40;20342;-64
2021/04/12 11:29:28;;;;;;;6.00;1.23;;;9.40;96.10;;;;;;3567282;40;20055;-64
2021/04/12 11:32:25;;;;;;;8.57;1.70;;;9.30;96.80;;;;;;3563904;40;20438;-63
2021/04/12 11:34:56;;;;;;;6.03;1.05;;;9.30;95.10;;;;;;3563976;40;20079;-63
2021/04/12 11:37:41;;;;;;;4.63;0.93;;;9.20;95.20;;;;;;3563712;40;20412;-63
2021/04/12 11:40:17;;;;;;;4.60;1.10;;;9.50;92.10;;;;;;3563132;40;20037;-63
2021/04/12 11:42:51;;;;;;;4.68;0.93;;;9.70;91.00;;;;;;3560637;40;20049;-64
2021/04/12 11:45:27;;;;;;;4.72;0.90;;;10.00;89.80;;;;;;3563340;40;20498;-64
2021/04/12 11:48:20;;;;;;;4.20;1.10;;;10.40;90.40;;;;;;3565965;40;20334;-64
2021/04/12 11:51:24;;;;;;;3.17;0.90;;;11.00;79.60;;;;;;3566468;40;20536;-64
2021/04/12 11:54:10;;;;;;;6.72;1.08;;;11.20;77.80;;;;;;3556106;40;20049;-64
2021/04/12 11:56:58;;;;;;;6.78;1.35;;;11.50;75.50;;;;;;3563343;40;20056;-64
2021/04/12 11:59:38;;;;;;;4.72;1.30;;;12.20;77.50;;;;;;3562944;40;20363;-64
2021/04/12 12:02:32;;;;;;;2.85;0.80;;;12.20;70.10;;;;;;3564016;40;20089;-64
2021/04/12 12:05:12;;;;;;;3.47;1.00;;;12.00;70.80;;;;;;3562652;40;20044;-64
2021/04/12 12:07:45;;;;;;;3.60;1.08;;;11.80;71.90;;;;;;3562799;40;20041;-64
2021/04/12 12:10:30;;;;;;;7.40;1.15;;;11.90;73.30;;;;;;3563264;40;20169;-64
2021/04/12 12:13:00;;;;;;;6.05;1.20;;;11.60;73.00;;;;;;3564219;40;20428;-64
2021/04/12 12:15:45;;;;;;;7.10;1.13;;;11.50;76.10;;;;;;3563575;40;20126;-63
2021/04/12 12:18:24;;;;;;;12.70;1.20;;;11.30;74.60;;;;;;3567340;40;20134;-64
2021/04/12 12:21:11;;;;;;;6.53;1.20;;;11.30;75.70;;;;;;3566060;40;20545;-63
2021/04/12 12:23:57;;;;;;;8.18;1.52;;;11.20;77.60;;;;;;3563603;40;20134;-63
2021/04/12 12:26:27;;;;;;;2.55;1.13;;;10.80;76.00;;;;;;3562891;40;20589;-63
2021/04/12 12:29:21;;;;;;;7.78;1.30;;;10.60;76.30;;;;;;3561892;40;20038;-63
2021/04/12 12:32:09;;;;;;;5.75;1.17;;;10.90;78.80;;;;;;3562544;40;20587;-64
2021/04/12 12:34:57;;;;;;;2.20;0.82;;;11.10;77.00;;;;;;3562501;40;20411;-63
2021/04/12 12:37:35;;;;;;;11.00;0.98;;;11.10;74.40;;;;;;3562927;40;20044;-64
2021/04/12 12:40:11;;;;;;;5.88;1.20;;;11.40;73.10;;;;;;3564110;40;20037;-63
2021/04/12 12:42:42;;;;;;;6.25;1.10;;;11.40;72.10;;;;;;3562091;40;20079;-65
2021/04/12 12:45:15;;;;;;;9.38;1.23;;;11.30;73.40;;;;;;3562539;40;20040;-63
2021/04/12 12:47:47;;;;;;;4.18;1.23;;;11.20;72.50;;;;;;3561575;40;20167;-63
2021/04/12 12:50:20;;;;;;;4.65;1.10;;;11.00;73.10;;;;;;3562307;40;20071;-63
2021/04/12 12:52:58;;;;;;;7.28;1.10;;;10.70;77.10;;;;;;3561746;40;20080;-63
2021/04/12 12:55:29;;;;;;;4.43;1.00;;;10.50;77.00;;;;;;3561369;40;20041;-63
2021/04/12 12:57:58;;;;;;;4.05;1.02;;;10.70;76.90;;;;;;3564043;40;20131;-64
2021/04/12 13:00:36;;;;;;;9.73;1.20;;;11.00;75.40;;;;;;3563179;40;20412;-64
2021/04/12 13:03:29;;;;;;;8.63;1.08;;;11.40;70.00;;;;;;3562945;40;20053;-64
2021/04/12 13:05:57;;;;;;;4.78;1.02;;;11.50;70.40;;;;;;3562659;40;20037;-65
2021/04/12 13:08:29;;;;;;;6.47;1.10;;;11.60;71.60;;;;;;3563415;40;20067;-64
2021/04/12 13:10:56;;;;;;;4.72;0.90;;;11.40;71.10;;;;;;3561880;40;20942;-64
2021/04/12 13:13:36;;;;;;;5.45;1.10;;;11.00;71.90;;;;;;3562437;40;20145;-64
2021/04/12 13:16:18;;;;;;;4.82;0.88;;;10.60;71.70;;;;;;3561371;40;20040;-65
2021/04/12 13:18:58;;;;;;;8.15;2.70;;;10.50;74.60;;;;;;3562342;40;20982;-65
2021/04/12 13:21:27;;;;;;;32.60;13.13;;;10.40;73.80;;;;;;3560360;40;20151;-64
2021/04/12 13:24:07;;;;;;;9.77;3.63;;;10.60;77.70;;;;;;3566335;40;20036;-64
2021/04/12 13:26:42;;;;;;;8.02;1.85;;;10.60;72.40;;;;;;3560494;40;20037;-65
2021/04/12 13:29:19;;;;;;;9.00;2.83;;;10.50;69.80;;;;;;3561821;40;20397;-64
2021/04/12 13:31:52;;;;;;;4.03;1.45;;;10.40;72.30;;;;;;3560139;40;20080;-64
2021/04/12 13:34:51;;;;;;;8.25;2.45;;;10.60;72.60;;;;;;3563185;40;20086;-64
2021/04/12 13:37:37;;;;;;;17.95;10.98;;;10.80;70.60;;;;;;3562336;40;20046;-65
2021/04/12 13:40:11;;;;;;;4.90;1.50;;;11.00;70.60;;;;;;3562117;40;20069;-64
2021/04/12 13:42:54;;;;;;;3.33;1.45;;;10.90;66.70;;;;;;3562141;40;20041;-65
2021/04/12 13:45:48;;;;;;;6.18;1.20;;;10.90;67.00;;;;;;3560963;40;20041;-63
2021/04/12 13:48:28;;;;;;;3.15;1.08;;;10.80;70.90;;;;;;3562382;40;20048;-64
2021/04/12 13:50:59;;;;;;;4.55;1.30;;;10.80;69.60;;;;;;3561344;40;20057;-64
2021/04/12 13:53:34;;;;;;;9.93;1.40;;;11.00;69.60;;;;;;3561706;40;20048;-68
2021/04/12 13:56:31;;;;;;;3.45;1.00;;;11.10;67.20;;;;;;3561538;40;20643;-63
2021/04/12 13:59:08;;;;;;;6.57;1.70;;;10.90;67.70;;;;;;3559692;40;20037;-64
2021/04/12 14:01:47;;;;;;;3.15;1.20;;;10.50;70.10;;;;;;3561918;40;20033;-63
2021/04/12 14:04:18;;;;;;;15.07;1.45;;;10.20;68.70;;;;;;3571470;40;20108;-64
2021/04/12 14:06:56;;;;;;;6.65;1.48;;;10.10;71.70;;;;;;3561977;40;20818;-64
2021/04/12 14:09:32;;;;;;;7.03;2.38;;;10.30;72.40;;;;;;3561862;40;20041;-65
2021/04/12 14:12:06;;;;;;;15.02;1.60;;;10.20;72.60;;;;;;3559851;40;20034;-64
2021/04/12 14:14:49;;;;;;;14.77;5.20;;;10.30;72.60;;;;;;3565242;40;20052;-64
2021/04/12 14:17:26;;;;;;;31.58;2.92;;;10.50;70.40;;;;;;3562081;40;20057;-63
2021/04/12 14:19:53;;;;;;;7.35;1.50;;;10.60;70.30;;;;;;3562046;40;20061;-64
2021/04/12 14:22:28;;;;;;;3.53;1.08;;;10.60;72.10;;;;;;3563280;40;20754;-64
2021/04/12 14:24:57;;;;;;;;;;;10.70;67.20;;;;;;3562966;40;20043;-64
2021/04/12 14:27:28;;;;;;;8.20;2.00;;;10.50;66.90;;;;;;3560616;40;20026;-64
2021/04/12 14:30:04;;;;;;;6.13;1.70;;;10.80;69.60;;;;;;3562712;40;20070;-64